Terminal Aerodrome Forecast
Issued by NWS

Home | Current Version | Previous Version | Text Only | Print | Product List | Glossary On
Versions: 1 2 3 4 5 6 7 8 9 10 11 12 13 14 15 16 17 18 19 20 21 22 23 24 25 26 27 28 29 30 31 32 33 34 35 36 37 38 39 40 41 42 43 44 45 46 47 48
000
FTUS46 KPQR 221534 AAC
TAFONP
TAF AMD
KONP 221534Z 2216/2312 23012G18KT 5SM BR VCTS SCT015CB BKN050
     FM221600 23012KT 6SM -SHRA BR FEW007 SCT015 BKN040=

USA.gov is the U.S. government's official web portal to all federal, state and local government web resources and services.